createdAt,value
2017-08-20T00:00:02.609Z,13.40
2017-08-20T00:02:31.021Z,13.40
2017-08-20T00:04:59.421Z,13.50
2017-08-20T00:07:27.833Z,13.50
2017-08-20T00:09:56.245Z,13.50
2017-08-20T00:12:24.671Z,13.60
2017-08-20T00:14:53.842Z,13.50
2017-08-20T00:17:22.247Z,13.50
2017-08-20T00:19:50.645Z,13.50
2017-08-20T00:22:19.107Z,13.50
2017-08-20T00:24:47.518Z,13.60
2017-08-20T00:27:15.913Z,13.60
2017-08-20T00:29:45.050Z,13.60
2017-08-20T00:32:13.458Z,13.60
2017-08-20T00:34:41.873Z,13.50
2017-08-20T00:37:10.305Z,13.50
2017-08-20T00:39:38.721Z,13.50
2017-08-20T00:42:07.118Z,13.50
2017-08-20T00:44:35.553Z,13.60
2017-08-20T00:47:03.966Z,13.50
2017-08-20T00:49:32.358Z,13.60
2017-08-20T00:52:00.799Z,13.50
2017-08-20T00:54:29.198Z,13.50
2017-08-20T00:56:57.594Z,13.60
2017-08-20T00:59:26.013Z,13.60
2017-08-20T01:01:54.416Z,13.60
2017-08-20T01:04:22.841Z,13.70
2017-08-20T01:06:51.242Z,13.60
2017-08-20T01:09:19.657Z,13.50
2017-08-20T01:11:48.085Z,13.50
2017-08-20T01:14:16.497Z,13.40
2017-08-20T01:16:44.901Z,13.40
2017-08-20T01:19:13.326Z,13.40
2017-08-20T01:21:41.734Z,13.40
2017-08-20T01:24:10.153Z,13.30
2017-08-20T01:26:39.346Z,13.30
2017-08-20T01:29:07.768Z,13.30
2017-08-20T01:31:37.698Z,13.40
2017-08-20T01:34:06.161Z,13.30
2017-08-20T01:36:34.561Z,13.30
2017-08-20T01:39:02.965Z,13.20
2017-08-20T01:41:32.203Z,13.30
2017-08-20T01:44:01.384Z,13.30
2017-08-20T01:46:29.785Z,13.20
2017-08-20T01:48:58.217Z,13.20
2017-08-20T01:51:26.613Z,13.10
2017-08-20T01:53:55.030Z,13.10
2017-08-20T01:56:23.466Z,13.10
2017-08-20T01:58:51.889Z,13.10
2017-08-20T02:01:20.341Z,13.10
2017-08-20T02:03:48.750Z,13.10
2017-08-20T02:06:17.181Z,13.10
2017-08-20T02:08:45.603Z,13.10
2017-08-20T02:11:14.027Z,13.10
2017-08-20T02:13:42.481Z,13.10
2017-08-20T02:16:11.154Z,13.10
2017-08-20T02:18:39.577Z,13.10
2017-08-20T02:21:08.002Z,13.20
2017-08-20T02:23:36.426Z,13.20
2017-08-20T02:26:04.824Z,13.10
2017-08-20T02:28:33.233Z,13.10
2017-08-20T02:31:01.662Z,13.10
2017-08-20T02:33:30.067Z,13.00
2017-08-20T02:35:58.282Z,13.10
2017-08-20T02:38:26.763Z,13.10
2017-08-20T02:40:55.165Z,13.10
2017-08-20T02:43:23.569Z,13.10
2017-08-20T02:45:52.005Z,13.10
2017-08-20T02:48:20.494Z,13.10
2017-08-20T02:50:48.961Z,13.00
2017-08-20T02:53:17.433Z,13.10
2017-08-20T02:55:45.854Z,13.10
2017-08-20T02:58:14.262Z,13.10
2017-08-20T03:00:42.678Z,13.10
2017-08-20T03:03:11.079Z,13.10
2017-08-20T03:05:39.507Z,13.00
2017-08-20T03:08:07.925Z,13.00
2017-08-20T03:10:36.322Z,13.00
2017-08-20T03:13:04.739Z,12.90
2017-08-20T03:15:33.141Z,12.80
2017-08-20T03:18:01.549Z,12.70
2017-08-20T03:20:29.982Z,12.70
2017-08-20T03:22:58.393Z,12.80
2017-08-20T03:25:26.803Z,12.80
2017-08-20T03:27:55.240Z,12.80
2017-08-20T03:30:23.675Z,12.90
2017-08-20T03:32:52.858Z,12.90
2017-08-20T03:35:21.557Z,12.90
2017-08-20T03:37:49.963Z,12.90
2017-08-20T03:40:18.368Z,12.90
2017-08-20T03:42:46.793Z,13.00
2017-08-20T03:45:15.201Z,12.90
2017-08-20T03:47:44.401Z,12.90
2017-08-20T03:50:12.815Z,12.90
2017-08-20T03:52:41.221Z,12.90
2017-08-20T03:55:09.646Z,12.90
2017-08-20T03:57:38.069Z,12.90
2017-08-20T04:00:06.542Z,13.00
2017-08-20T04:02:34.982Z,12.90
2017-08-20T04:05:03.402Z,12.90
2017-08-20T04:07:31.798Z,12.90
2017-08-20T04:10:00.209Z,12.90
2017-08-20T04:12:28.611Z,12.90
2017-08-20T04:14:57.013Z,13.00
2017-08-20T04:17:25.433Z,13.00
2017-08-20T04:19:53.871Z,13.10
2017-08-20T04:22:22.290Z,13.00
2017-08-20T04:24:50.933Z,13.00
2017-08-20T04:27:19.337Z,13.10
2017-08-20T04:29:47.742Z,13.20
2017-08-20T04:32:16.157Z,13.20
2017-08-20T04:34:44.561Z,13.20
2017-08-20T04:37:12.965Z,13.20
2017-08-20T04:39:41.421Z,13.20
2017-08-20T04:42:09.831Z,13.20
2017-08-20T04:44:38.231Z,13.20
2017-08-20T04:47:06.641Z,13.10
2017-08-20T04:49:35.059Z,13.20
2017-08-20T04:52:03.462Z,13.30
2017-08-20T04:54:31.885Z,13.20
2017-08-20T04:57:00.303Z,13.20
2017-08-20T04:59:28.725Z,13.20
2017-08-20T05:01:57.179Z,13.20
2017-08-20T05:04:25.647Z,13.30
2017-08-20T05:06:54.045Z,13.30
2017-08-20T05:09:22.455Z,13.30
2017-08-20T05:11:50.874Z,13.30
2017-08-20T05:14:19.288Z,13.40
2017-08-20T05:16:48.414Z,13.40
2017-08-20T05:19:16.893Z,13.40
2017-08-20T05:21:45.327Z,13.40
2017-08-20T05:24:14.449Z,13.50
2017-08-20T05:26:42.933Z,13.50
2017-08-20T05:29:11.361Z,13.60
2017-08-20T05:31:39.768Z,13.50
2017-08-20T05:34:08.212Z,13.60
2017-08-20T05:36:36.636Z,13.60
2017-08-20T05:39:04.384Z,13.70
2017-08-20T05:41:32.789Z,13.60
2017-08-20T05:44:01.193Z,13.70
2017-08-20T05:46:29.621Z,13.70
2017-08-20T05:48:58.026Z,13.70
2017-08-20T05:51:26.421Z,13.70
2017-08-20T05:53:54.939Z,13.70
2017-08-20T05:56:23.387Z,13.70
2017-08-20T05:58:51.818Z,13.80
2017-08-20T06:01:20.250Z,13.90
2017-08-20T06:03:48.661Z,14.00
2017-08-20T06:06:17.066Z,14.00
2017-08-20T06:08:45.485Z,14.10
2017-08-20T06:11:13.895Z,14.10
2017-08-20T06:13:42.297Z,14.20
2017-08-20T06:16:11.493Z,14.30
2017-08-20T06:18:39.897Z,14.30
2017-08-20T06:21:08.293Z,14.40
2017-08-20T06:23:36.763Z,14.50
2017-08-20T06:26:05.165Z,14.50
2017-08-20T06:28:33.577Z,14.50
2017-08-20T06:31:02.006Z,14.60
2017-08-20T06:33:30.401Z,14.70
2017-08-20T06:35:58.817Z,14.80
2017-08-20T06:38:27.270Z,14.80
2017-08-20T06:40:55.669Z,14.60
2017-08-20T06:43:24.107Z,14.50
2017-08-20T06:45:52.563Z,14.60
2017-08-20T06:48:20.973Z,14.50
2017-08-20T06:50:49.378Z,14.50
2017-08-20T06:53:17.794Z,14.50
2017-08-20T06:55:46.948Z,14.60
2017-08-20T06:58:15.429Z,14.70
2017-08-20T07:00:43.859Z,14.80
2017-08-20T07:03:12.310Z,14.80
2017-08-20T07:05:40.840Z,14.90
2017-08-20T07:08:09.240Z,15.00
2017-08-20T07:10:37.644Z,15.10
2017-08-20T07:13:06.302Z,15.20
2017-08-20T07:15:34.701Z,15.30
2017-08-20T07:18:02.917Z,15.50
2017-08-20T07:20:31.389Z,15.60
2017-08-20T07:22:59.850Z,15.70
2017-08-20T07:25:28.297Z,15.80
2017-08-20T07:27:56.713Z,16.00
2017-08-20T07:30:25.120Z,16.30
2017-08-20T07:32:53.527Z,16.30
2017-08-20T07:35:22.729Z,16.50
2017-08-20T07:37:51.139Z,16.40
2017-08-20T07:40:19.805Z,16.50
2017-08-20T07:42:48.461Z,16.60
2017-08-20T07:45:16.864Z,16.50
2017-08-20T07:47:45.262Z,16.80
2017-08-20T07:50:13.721Z,16.90
2017-08-20T07:52:42.904Z,17.30
2017-08-20T07:55:11.302Z,17.30
2017-08-20T07:57:39.826Z,17.40
2017-08-20T08:02:41.399Z,17.70
2017-08-20T08:05:09.913Z,17.80
2017-08-20T08:10:19.585Z,18.10
2017-08-20T08:12:48.155Z,18.10
2017-08-20T08:15:16.615Z,18.40
2017-08-20T08:17:45.751Z,18.40
2017-08-20T08:20:14.501Z,18.50
2017-08-20T08:22:43.221Z,18.50
2017-08-20T08:25:12.068Z,18.50
2017-08-20T08:27:40.765Z,18.50
2017-08-20T08:30:09.326Z,18.80
2017-08-20T08:32:38.026Z,18.90
2017-08-20T08:35:06.526Z,19.20
2017-08-20T08:37:35.084Z,19.60
2017-08-20T08:40:03.774Z,19.70
2017-08-20T08:42:32.566Z,20.20
2017-08-20T08:45:01.096Z,20.30
2017-08-20T08:47:29.576Z,20.40
2017-08-20T08:49:58.060Z,20.80
2017-08-20T08:52:26.573Z,20.70
2017-08-20T08:54:55.044Z,21.10
2017-08-20T08:57:23.558Z,21.50
2017-08-20T08:59:52.279Z,21.30
2017-08-20T09:02:20.756Z,21.40
2017-08-20T09:04:49.254Z,23.90
2017-08-20T09:07:17.762Z,26.70
2017-08-20T09:09:46.264Z,27.20
2017-08-20T09:12:14.778Z,26.50
2017-08-20T09:14:43.246Z,25.00
2017-08-20T09:17:11.744Z,24.10
2017-08-20T09:19:40.236Z,23.70
2017-08-20T09:22:08.693Z,23.00
2017-08-20T09:24:37.154Z,22.90
2017-08-20T09:27:05.675Z,22.10
2017-08-20T09:29:34.945Z,21.70
2017-08-20T09:32:03.395Z,21.70
2017-08-20T09:34:32.012Z,21.80
2017-08-20T09:37:00.438Z,22.70
2017-08-20T09:39:28.916Z,25.00
2017-08-20T09:41:57.355Z,27.20
2017-08-20T09:44:25.933Z,28.70
2017-08-20T09:46:54.431Z,30.10
2017-08-20T09:49:22.947Z,31.20
2017-08-20T09:51:51.508Z,31.40
2017-08-20T09:54:20.006Z,31.30
2017-08-20T09:56:48.505Z,32.20
2017-08-20T09:59:16.972Z,31.70
2017-08-20T10:01:45.426Z,31.70
2017-08-20T10:04:13.949Z,31.60
2017-08-20T10:06:42.381Z,31.80
2017-08-20T10:09:10.841Z,30.40
2017-08-20T10:11:39.288Z,29.80
2017-08-20T10:14:07.763Z,30.10
2017-08-20T10:16:36.210Z,31.70
2017-08-20T10:19:04.649Z,31.90
2017-08-20T10:21:33.125Z,31.00
2017-08-20T10:24:01.561Z,30.80
2017-08-20T10:26:29.979Z,29.60
2017-08-20T10:28:58.420Z,28.70
2017-08-20T10:31:26.838Z,27.90
2017-08-20T10:33:55.289Z,27.70
2017-08-20T10:36:23.747Z,28.60
2017-08-20T10:38:52.960Z,33.20
2017-08-20T10:41:21.489Z,33.10
2017-08-20T10:43:49.910Z,32.30
2017-08-20T10:46:18.352Z,31.00
2017-08-20T10:48:46.849Z,30.70
2017-08-20T10:51:15.286Z,29.00
2017-08-20T10:53:43.729Z,28.60
2017-08-20T10:56:12.188Z,29.00
2017-08-20T10:58:40.617Z,28.70
2017-08-20T11:01:09.050Z,27.70
2017-08-20T11:03:37.519Z,26.90
2017-08-20T11:06:05.945Z,26.40
2017-08-20T11:08:34.354Z,25.80
2017-08-20T11:11:17.296Z,25.40
2017-08-20T11:13:45.708Z,27.20
2017-08-20T11:16:14.165Z,28.40
2017-08-20T11:18:42.583Z,29.40
2017-08-20T11:21:10.997Z,29.60
2017-08-20T11:23:39.473Z,28.90
2017-08-20T11:26:07.916Z,27.40
2017-08-20T11:28:36.341Z,26.20
2017-08-20T11:31:04.776Z,25.50
2017-08-20T11:33:33.206Z,24.70
2017-08-20T11:36:01.623Z,24.10
2017-08-20T11:38:30.049Z,23.30
2017-08-20T11:40:58.476Z,22.90
2017-08-20T11:43:26.896Z,22.20
2017-08-20T11:45:55.820Z,21.70
2017-08-20T11:48:24.218Z,21.10
2017-08-20T11:50:52.633Z,20.80
2017-08-20T11:53:21.091Z,20.50
2017-08-20T11:55:49.501Z,20.40
2017-08-20T11:58:17.938Z,20.10
2017-08-20T12:00:46.497Z,20.00
2017-08-20T12:03:14.906Z,19.90
2017-08-20T12:05:43.335Z,19.80
2017-08-20T12:08:11.790Z,19.70
2017-08-20T12:10:40.216Z,19.80
2017-08-20T12:13:08.626Z,19.90
2017-08-20T12:15:37.065Z,19.80
2017-08-20T12:18:05.468Z,19.90
2017-08-20T12:20:33.905Z,20.00
2017-08-20T12:23:02.433Z,19.90
2017-08-20T12:25:31.025Z,19.80
2017-08-20T12:27:59.498Z,19.90
2017-08-20T12:30:28.005Z,21.30
2017-08-20T12:32:56.407Z,23.30
2017-08-20T12:35:24.858Z,24.00
2017-08-20T12:37:53.286Z,24.90
2017-08-20T12:40:21.783Z,25.50
2017-08-20T12:42:50.528Z,25.90
2017-08-20T12:45:18.941Z,26.10
2017-08-20T12:47:47.455Z,26.50
2017-08-20T12:50:15.932Z,25.80
2017-08-20T12:52:44.362Z,25.10
2017-08-20T12:55:12.794Z,25.60
2017-08-20T12:57:41.285Z,25.90
2017-08-20T13:00:09.754Z,25.60
2017-08-20T13:02:38.236Z,26.00
2017-08-20T13:05:06.658Z,25.80
2017-08-20T13:07:35.098Z,25.10
2017-08-20T13:10:03.524Z,24.40
2017-08-20T13:12:31.617Z,24.10
2017-08-20T13:15:00.027Z,24.60
2017-08-20T13:17:28.482Z,24.80
2017-08-20T13:19:56.885Z,24.50
2017-08-20T13:22:25.307Z,24.00
2017-08-20T13:24:53.760Z,24.20
2017-08-20T13:27:22.234Z,24.40
2017-08-20T13:29:50.735Z,24.30
2017-08-20T13:32:19.180Z,24.30
2017-08-20T13:34:47.594Z,23.90
2017-08-20T13:37:16.028Z,23.90
2017-08-20T13:39:44.455Z,23.70
2017-08-20T13:42:12.864Z,23.80
2017-08-20T13:44:41.336Z,24.00
2017-08-20T13:47:09.763Z,24.10
2017-08-20T13:49:38.174Z,23.70
2017-08-20T13:52:06.600Z,23.70
2017-08-20T13:54:35.014Z,23.60
2017-08-20T13:57:03.425Z,23.90
2017-08-20T13:59:32.641Z,23.80
2017-08-20T14:02:01.040Z,23.80
2017-08-20T14:04:29.483Z,23.50
2017-08-20T14:06:57.966Z,23.50
2017-08-20T14:09:26.514Z,23.40
2017-08-20T14:11:54.963Z,23.40
2017-08-20T14:14:23.424Z,23.40
2017-08-20T14:16:51.939Z,23.40
2017-08-20T14:19:20.421Z,23.30
2017-08-20T14:21:48.876Z,23.20
2017-08-20T14:24:17.958Z,23.00
2017-08-20T14:26:46.450Z,22.60
2017-08-20T14:29:14.946Z,22.80
2017-08-20T14:31:43.442Z,22.90
2017-08-20T14:34:11.898Z,23.00
2017-08-20T14:36:40.347Z,22.90
2017-08-20T14:39:08.860Z,23.00
2017-08-20T14:41:37.350Z,22.90
2017-08-20T14:44:05.858Z,22.70
2017-08-20T14:46:34.402Z,22.50
2017-08-20T14:49:02.868Z,22.50
2017-08-20T14:51:31.328Z,22.50
2017-08-20T14:53:59.815Z,22.40
2017-08-20T14:56:28.266Z,22.40
2017-08-20T14:58:56.699Z,22.20
2017-08-20T15:01:25.165Z,22.10
2017-08-20T15:03:53.640Z,22.10
2017-08-20T15:06:22.089Z,22.10
2017-08-20T15:08:50.565Z,22.20
2017-08-20T15:11:19.034Z,22.20
2017-08-20T15:13:47.511Z,22.20
2017-08-20T15:16:16.061Z,22.00
2017-08-20T15:18:44.511Z,21.80
2017-08-20T15:21:12.960Z,22.00
2017-08-20T15:23:41.433Z,21.70
2017-08-20T15:26:09.898Z,21.40
2017-08-20T15:28:38.368Z,21.30
2017-08-20T15:31:06.910Z,21.20
2017-08-20T15:33:35.352Z,21.30
2017-08-20T15:36:03.791Z,21.30
2017-08-20T15:38:32.300Z,21.20
2017-08-20T15:41:00.762Z,21.20
2017-08-20T15:43:29.217Z,21.20
2017-08-20T15:45:57.675Z,20.90
2017-08-20T15:48:26.122Z,20.80
2017-08-20T15:50:54.550Z,20.60
2017-08-20T15:53:23.018Z,20.60
2017-08-20T15:55:51.455Z,20.70
2017-08-20T15:58:19.883Z,20.70
2017-08-20T16:00:48.362Z,20.60
2017-08-20T16:03:16.876Z,20.40
2017-08-20T16:05:45.334Z,20.30
2017-08-20T16:08:13.810Z,20.10
2017-08-20T16:10:42.234Z,20.10
2017-08-20T16:13:10.704Z,20.00
2017-08-20T16:15:39.196Z,20.10
2017-08-20T16:18:07.647Z,20.00
2017-08-20T16:20:36.135Z,19.80
2017-08-20T16:23:04.635Z,19.70
2017-08-20T16:25:33.117Z,19.50
2017-08-20T16:28:01.563Z,19.30
2017-08-20T16:30:30.034Z,19.30
2017-08-20T16:32:58.473Z,19.20
2017-08-20T16:35:26.916Z,19.00
2017-08-20T16:37:55.398Z,18.90
2017-08-20T16:40:23.883Z,18.90
2017-08-20T16:42:52.404Z,18.80
2017-08-20T16:45:20.839Z,18.70
2017-08-20T16:47:49.365Z,18.60
2017-08-20T16:50:17.814Z,18.40
2017-08-20T16:52:46.261Z,18.20
2017-08-20T16:55:14.721Z,18.00
2017-08-20T16:57:43.170Z,17.90
2017-08-20T17:00:11.633Z,17.70
2017-08-20T17:02:40.078Z,17.60
2017-08-20T17:05:08.543Z,17.40
2017-08-20T17:07:37.005Z,17.20
2017-08-20T17:10:05.462Z,17.10
2017-08-20T17:12:33.925Z,17.10
2017-08-20T17:15:02.430Z,17.10
2017-08-20T17:17:30.878Z,17.00
2017-08-20T17:19:59.331Z,16.90
2017-08-20T17:22:27.799Z,16.70
2017-08-20T17:24:56.242Z,16.40
2017-08-20T17:27:24.706Z,16.20
2017-08-20T17:29:53.191Z,16.00
2017-08-20T17:32:21.658Z,15.80
2017-08-20T17:34:50.122Z,15.50
2017-08-20T17:37:18.595Z,15.40
2017-08-20T17:39:47.068Z,15.10
2017-08-20T17:42:15.548Z,14.90
2017-08-20T17:44:44.015Z,14.80
2017-08-20T17:47:12.489Z,14.70
2017-08-20T17:49:40.969Z,14.40
2017-08-20T17:52:09.447Z,14.30
2017-08-20T17:54:37.899Z,14.10
2017-08-20T17:57:06.455Z,14.00
2017-08-20T17:59:34.944Z,13.90
2017-08-20T18:02:03.386Z,13.80
2017-08-20T18:04:31.848Z,13.70
2017-08-20T18:07:00.291Z,13.70
2017-08-20T18:09:28.734Z,13.50
2017-08-20T18:11:57.274Z,13.40
2017-08-20T18:14:25.702Z,13.30
2017-08-20T18:16:54.241Z,13.20
2017-08-20T18:19:22.697Z,13.00
2017-08-20T18:21:51.250Z,13.00
2017-08-20T18:24:19.891Z,13.00
2017-08-20T18:26:48.325Z,12.90
2017-08-20T18:29:16.821Z,12.80
2017-08-20T18:31:45.929Z,12.70
2017-08-20T18:34:14.872Z,12.60
2017-08-20T18:36:43.824Z,12.50
2017-08-20T18:39:13.006Z,12.50
2017-08-20T18:41:42.053Z,12.40
2017-08-20T18:44:11.163Z,12.40
2017-08-20T18:46:40.651Z,12.40
2017-08-20T18:49:09.687Z,12.40
2017-08-20T18:51:38.646Z,12.30
2017-08-20T18:54:07.652Z,12.30
2017-08-20T18:56:37.142Z,12.20
2017-08-20T18:59:06.188Z,12.10
2017-08-20T19:01:35.478Z,12.10
2017-08-20T19:04:06.327Z,12.00
2017-08-20T19:06:35.248Z,11.90
2017-08-20T19:09:03.919Z,11.80
2017-08-20T19:11:33.723Z,11.70
2017-08-20T19:14:03.607Z,11.60
2017-08-20T19:16:32.614Z,11.50
2017-08-20T19:19:01.525Z,11.40
2017-08-20T19:21:31.292Z,11.40
2017-08-20T19:24:02.171Z,11.40
2017-08-20T19:26:31.108Z,11.30
2017-08-20T19:29:01.286Z,11.30
2017-08-20T19:31:30.215Z,11.20
2017-08-20T19:33:58.975Z,11.10
2017-08-20T19:36:27.889Z,11.00
2017-08-20T19:38:56.842Z,11.00
2017-08-20T19:41:26.690Z,10.90
2017-08-20T19:43:56.444Z,10.90
2017-08-20T19:46:25.396Z,10.80
2017-08-20T19:48:54.434Z,10.80
2017-08-20T19:51:24.306Z,10.70
2017-08-20T19:53:55.158Z,10.60
2017-08-20T19:56:23.658Z,10.50
2017-08-20T19:58:52.871Z,10.50
2017-08-20T20:01:21.309Z,10.50
2017-08-20T20:03:49.770Z,10.50
2017-08-20T20:06:18.197Z,10.50
2017-08-20T20:08:46.673Z,10.40
2017-08-20T20:11:15.214Z,10.40
2017-08-20T20:13:43.692Z,10.30
2017-08-20T20:16:12.178Z,10.20
2017-08-20T20:18:40.878Z,10.10
2017-08-20T20:21:09.327Z,10.10
2017-08-20T20:23:37.773Z,10.00
2017-08-20T20:26:06.218Z,10.00
2017-08-20T20:28:34.975Z,9.90
2017-08-20T20:31:03.430Z,9.90
2017-08-20T20:33:31.875Z,9.90
2017-08-20T20:36:00.343Z,9.80
2017-08-20T20:38:29.066Z,9.80
2017-08-20T20:40:57.554Z,9.80
2017-08-20T20:43:26.280Z,9.80
2017-08-20T20:45:54.886Z,9.70
2017-08-20T20:48:23.321Z,9.60
2017-08-20T20:50:52.058Z,9.60
2017-08-20T20:53:21.510Z,9.60
2017-08-20T20:55:50.195Z,9.60
2017-08-20T20:58:18.649Z,9.60
2017-08-20T21:00:47.065Z,9.50
2017-08-20T21:03:15.766Z,9.50
2017-08-20T21:05:44.505Z,9.60
2017-08-20T21:08:13.237Z,9.50
2017-08-20T21:10:41.947Z,9.40
2017-08-20T21:13:10.656Z,9.40
2017-08-20T21:15:39.340Z,9.30
2017-08-20T21:18:08.071Z,9.30
2017-08-20T21:20:36.515Z,9.30
2017-08-20T21:23:04.994Z,9.30
2017-08-20T21:25:33.786Z,9.20
2017-08-20T21:28:02.470Z,9.20
2017-08-20T21:30:31.180Z,9.20
2017-08-20T21:32:59.663Z,9.30
2017-08-20T21:35:28.363Z,9.20
2017-08-20T21:37:57.096Z,9.20
2017-08-20T21:40:25.849Z,9.10
2017-08-20T21:42:54.577Z,9.20
2017-08-20T21:45:23.296Z,9.10
2017-08-20T21:47:52.047Z,9.00
2017-08-20T21:50:20.755Z,9.00
2017-08-20T21:52:49.477Z,9.00
2017-08-20T21:55:18.245Z,9.00
2017-08-20T21:57:47.013Z,9.00
2017-08-20T22:00:16.492Z,8.90
2017-08-20T22:02:45.227Z,8.90
2017-08-20T22:05:14.011Z,8.90
2017-08-20T22:07:43.579Z,8.90
2017-08-20T22:10:12.354Z,8.90
2017-08-20T22:12:41.110Z,8.90
2017-08-20T22:15:09.983Z,8.90
2017-08-20T22:17:38.726Z,8.90
2017-08-20T22:20:07.465Z,8.90
2017-08-20T22:22:36.162Z,8.80
2017-08-20T22:25:05.115Z,8.80
2017-08-20T22:27:33.861Z,8.70
2017-08-20T22:30:02.596Z,8.70
2017-08-20T22:32:31.371Z,8.70
2017-08-20T22:35:00.079Z,8.60
2017-08-20T22:37:28.826Z,8.60
2017-08-20T22:39:57.568Z,8.60
2017-08-20T22:42:26.284Z,8.50
2017-08-20T22:44:55.041Z,8.50
2017-08-20T22:47:23.832Z,8.50
2017-08-20T22:49:52.552Z,8.40
2017-08-20T22:52:21.333Z,8.50
2017-08-20T22:54:50.051Z,8.50
2017-08-20T22:57:21.860Z,8.50
2017-08-20T22:59:50.602Z,8.40
2017-08-20T23:02:19.361Z,8.40
2017-08-20T23:04:48.077Z,8.30
2017-08-20T23:07:16.842Z,8.30
2017-08-20T23:09:45.695Z,8.30
2017-08-20T23:12:14.468Z,8.30
2017-08-20T23:14:43.206Z,8.30
2017-08-20T23:17:11.954Z,8.30
2017-08-20T23:19:40.741Z,8.30
2017-08-20T23:22:09.506Z,8.30
2017-08-20T23:24:38.227Z,8.20
2017-08-20T23:27:06.943Z,8.20
2017-08-20T23:29:35.721Z,8.20
2017-08-20T23:32:04.457Z,8.20
2017-08-20T23:34:33.230Z,8.20
2017-08-20T23:37:02.038Z,8.20
2017-08-20T23:39:30.777Z,8.20
2017-08-20T23:41:59.495Z,8.10
2017-08-20T23:44:28.286Z,8.10
2017-08-20T23:46:57.057Z,8.00
2017-08-20T23:49:25.835Z,8.00
2017-08-20T23:51:54.614Z,8.00
2017-08-20T23:54:23.408Z,7.90
2017-08-20T23:56:52.529Z,7.80
2017-08-20T23:59:21.250Z,7.90
